Columbus City, Iowa
Current Conditions -  °F | °C
As of 1:15 AM on Friday 31 Oct 2014 (Local Time) from KMUT Reporting Station
Overcast Overcast  
Wind Chill: 42°   Ceiling: 4800
Heat Index: 48°   Visibility: 10mi
Dew Point: 37°   Wind: 18mph
Humidity: 66%   Direction: 340°NNW
Pressure: 30.15"   Gusts: NA
Location:  41.26°N, 91.37°W
Report Text: KMUT 310615Z AUTO 34016KT 10SM OVC048 09/03 A3015 RMK AO2
Loading
Personal Weather Stations






























Interactive Weather Map New forecast layout! Learn more

10-Day Weather Forecast

Advertisements
Track Severe Weather on mobile